Main page
METAR-TAF:

METAR-TAF

Airports :

Waukegan National Airport

Waukegan, Illinois, United States

latitude: 42-25N, longitude: 087-52W, elevation: 728 ft

Current weather observation

The report was made 49 minutes ago, at 18:51 UTC
Wind 14 mph from the North/Northeast
Temperature 43°F
Humidity 56%
Pressure 30.30 in. Hg
Visibility: 10 miles
Clear sky

METAR: KUGN 241851Z 03012KT 10SM CLR 06/M02 A3030 RMK AO2 SLP268 T00611017

Time: 14:40 (19:40 UTC)


TAF: missing

Weather observations and forecasts of more than 4000 airports (METAR and TAF reports).

The available stations are represented by yellow and red dots on the map.

Hover mouse over dot to see the name of the station.

Then click to see weather observations and forecasts.

To change the map : click on the green buttons with a black cross to zoom in, on the green button with a dash to zoom out, or on the green arrows for adjacent maps.


METAR-TAF: